createdAt,value
2017-10-13T00:00:40.438Z,13.80
2017-10-13T00:03:07.917Z,23.00
2017-10-13T00:05:35.379Z,10.63
2017-10-13T00:08:02.914Z,11.20
2017-10-13T00:10:30.382Z,9.55
2017-10-13T00:12:57.838Z,14.50
2017-10-13T00:15:25.397Z,14.13
2017-10-13T00:17:52.858Z,10.53
2017-10-13T00:20:20.306Z,10.53
2017-10-13T00:22:47.862Z,10.53
2017-10-13T00:25:15.318Z,10.70
2017-10-13T00:27:42.781Z,13.33
2017-10-13T00:30:10.245Z,13.63
2017-10-13T00:32:37.705Z,14.63
2017-10-13T00:35:05.158Z,12.20
2017-10-13T00:37:32.711Z,12.90
2017-10-13T00:40:00.166Z,15.13
2017-10-13T00:42:27.647Z,20.77
2017-10-13T00:44:55.863Z,12.57
2017-10-13T00:47:23.348Z,12.47
2017-10-13T00:49:50.810Z,19.25
2017-10-13T00:52:18.375Z,15.23
2017-10-13T00:54:45.844Z,13.33
2017-10-13T00:57:13.302Z,13.73
2017-10-13T00:59:40.847Z,11.20
2017-10-13T01:02:08.309Z,13.45
2017-10-13T01:04:35.757Z,11.43
2017-10-13T01:07:03.227Z,9.85
2017-10-13T01:09:31.449Z,9.57
2017-10-13T01:11:58.918Z,9.63
2017-10-13T01:14:26.377Z,10.27
2017-10-13T01:16:53.835Z,11.10
2017-10-13T01:19:21.315Z,9.17
2017-10-13T01:21:48.872Z,8.27
2017-10-13T01:24:16.329Z,10.43
2017-10-13T01:26:43.786Z,11.57
2017-10-13T01:29:11.245Z,8.23
2017-10-13T01:31:38.777Z,8.77
2017-10-13T01:34:06.267Z,8.40
2017-10-13T01:36:34.477Z,13.43
2017-10-13T01:39:01.950Z,10.27
2017-10-13T01:41:29.398Z,11.70
2017-10-13T01:43:56.851Z,10.20
2017-10-13T01:46:24.305Z,7.37
2017-10-13T01:48:51.808Z,10.95
2017-10-13T01:51:19.257Z,7.97
2017-10-13T01:53:46.830Z,9.82
2017-10-13T01:56:14.381Z,6.85
2017-10-13T01:58:41.851Z,11.43
2017-10-13T02:01:09.304Z,6.35
2017-10-13T02:03:36.766Z,8.35
2017-10-13T02:06:04.223Z,8.00
2017-10-13T02:08:31.677Z,8.20
2017-10-13T02:10:59.125Z,7.18
2017-10-13T02:13:26.590Z,7.15
2017-10-13T02:15:54.039Z,8.32
2017-10-13T02:18:21.496Z,12.43
2017-10-13T02:20:48.958Z,17.55
2017-10-13T02:23:16.417Z,21.30
2017-10-13T02:25:43.967Z,11.93
2017-10-13T02:28:11.425Z,10.68
2017-10-13T02:30:38.879Z,9.87
2017-10-13T02:33:06.333Z,14.23
2017-10-13T02:35:33.797Z,9.13
2017-10-13T02:38:01.237Z,14.60
2017-10-13T02:40:28.697Z,9.00
2017-10-13T02:42:56.137Z,9.13
2017-10-13T02:45:23.597Z,12.93
2017-10-13T02:47:51.050Z,11.77
2017-10-13T02:50:18.527Z,12.50
2017-10-13T02:52:45.974Z,8.63
2017-10-13T02:55:13.457Z,11.40
2017-10-13T02:57:42.426Z,11.32
2017-10-13T03:00:10.004Z,11.10
2017-10-13T03:02:37.453Z,15.30
2017-10-13T03:05:04.919Z,14.87
2017-10-13T03:07:32.369Z,17.40
2017-10-13T03:09:59.930Z,19.87
2017-10-13T03:12:28.899Z,15.98
2017-10-13T03:14:56.365Z,13.27
2017-10-13T03:17:23.824Z,11.55
2017-10-13T03:19:51.350Z,13.50
2017-10-13T03:22:18.810Z,13.93
2017-10-13T03:24:46.313Z,13.80
2017-10-13T03:27:13.770Z,9.80
2017-10-13T03:29:42.008Z,8.30
2017-10-13T03:32:09.458Z,9.95
2017-10-13T03:34:36.930Z,14.18
2017-10-13T03:37:04.422Z,15.77
2017-10-13T03:39:31.882Z,10.98
2017-10-13T03:42:00.157Z,11.65
2017-10-13T03:44:27.606Z,8.70
2017-10-13T03:46:55.078Z,8.35
2017-10-13T03:49:22.522Z,9.75
2017-10-13T03:51:49.986Z,8.65
2017-10-13T03:54:17.525Z,8.40
2017-10-13T03:56:45.103Z,9.70
2017-10-13T03:59:12.561Z,8.32
2017-10-13T04:01:40.025Z,7.62
2017-10-13T04:04:07.473Z,9.38
2017-10-13T04:06:34.936Z,9.30
2017-10-13T04:09:02.385Z,7.80
2017-10-13T04:11:29.845Z,8.07
2017-10-13T04:13:57.305Z,9.88
2017-10-13T04:16:24.768Z,9.25
2017-10-13T04:18:52.218Z,12.60
2017-10-13T04:21:19.689Z,10.88
2017-10-13T04:23:47.907Z,11.57
2017-10-13T04:26:15.379Z,9.05
2017-10-13T04:28:42.830Z,10.45
2017-10-13T04:31:10.294Z,9.77
2017-10-13T04:33:37.746Z,11.48
2017-10-13T04:36:05.211Z,7.07
2017-10-13T04:38:32.671Z,7.10
2017-10-13T04:41:00.137Z,8.20
2017-10-13T04:43:27.585Z,8.75
2017-10-13T04:45:55.053Z,8.73
2017-10-13T04:48:22.506Z,9.37
2017-10-13T04:50:50.067Z,7.97
2017-10-13T04:53:17.521Z,6.80
2017-10-13T04:55:44.987Z,7.45
2017-10-13T04:58:12.451Z,7.27
2017-10-13T05:00:39.897Z,8.10
2017-10-13T05:03:07.358Z,7.93
2017-10-13T05:05:34.903Z,9.90
2017-10-13T05:08:02.365Z,12.23
2017-10-13T05:10:29.829Z,13.05
2017-10-13T05:12:57.290Z,10.43
2017-10-13T05:15:24.746Z,13.63
2017-10-13T05:17:53.011Z,10.18
2017-10-13T05:20:20.466Z,11.60
2017-10-13T05:22:47.927Z,11.43
2017-10-13T05:25:15.381Z,13.18
2017-10-13T05:27:42.856Z,14.45
2017-10-13T05:30:11.106Z,14.52
2017-10-13T05:32:38.563Z,11.95
2017-10-13T05:35:06.018Z,10.35
2017-10-13T05:37:33.490Z,10.40
2017-10-13T05:40:00.954Z,12.57
2017-10-13T05:42:28.414Z,11.18
2017-10-13T05:44:55.866Z,9.60
2017-10-13T05:47:23.322Z,8.55
2017-10-13T05:49:50.867Z,10.80
2017-10-13T05:52:18.326Z,9.20
2017-10-13T05:54:45.786Z,9.20
2017-10-13T05:57:13.241Z,10.05
2017-10-13T05:59:40.716Z,10.82
2017-10-13T06:02:08.939Z,15.75
2017-10-13T06:04:36.423Z,12.73
2017-10-13T06:07:03.884Z,12.52
2017-10-13T06:09:31.537Z,14.35
2017-10-13T06:11:58.990Z,11.35
2017-10-13T06:14:26.449Z,10.52
2017-10-13T06:16:53.907Z,13.93
2017-10-13T06:19:21.377Z,13.68
2017-10-13T06:21:48.838Z,10.45
2017-10-13T06:24:16.390Z,10.77
2017-10-13T06:26:43.852Z,11.60
2017-10-13T06:29:11.406Z,9.75
2017-10-13T06:31:38.849Z,8.25
2017-10-13T06:34:06.309Z,13.40
2017-10-13T06:36:33.773Z,11.30
2017-10-13T06:39:01.245Z,11.90
2017-10-13T06:41:28.690Z,9.43
2017-10-13T06:43:56.145Z,9.55
2017-10-13T06:46:23.615Z,9.70
2017-10-13T06:48:51.842Z,12.63
2017-10-13T06:51:19.321Z,8.83
2017-10-13T06:53:46.770Z,11.30
2017-10-13T06:56:14.228Z,8.05
2017-10-13T06:58:41.807Z,10.48
2017-10-13T07:01:09.253Z,8.53
2017-10-13T07:03:36.713Z,9.98
2017-10-13T07:06:04.178Z,8.73
2017-10-13T07:08:31.621Z,7.67
2017-10-13T07:10:59.090Z,6.90
2017-10-13T07:13:26.550Z,6.43
2017-10-13T07:15:54.008Z,8.43
2017-10-13T07:18:21.467Z,8.90
2017-10-13T07:20:48.931Z,6.63
2017-10-13T07:23:16.386Z,8.07
2017-10-13T07:25:44.619Z,6.23
2017-10-13T07:28:12.067Z,9.03
2017-10-13T07:30:39.525Z,6.47
2017-10-13T07:33:06.996Z,11.00
2017-10-13T07:35:34.446Z,5.80
2017-10-13T07:38:01.906Z,6.53
2017-10-13T07:40:29.390Z,6.30
2017-10-13T07:42:56.886Z,5.30
2017-10-13T07:45:25.107Z,7.60
2017-10-13T07:47:52.565Z,6.27
2017-10-13T07:50:20.019Z,6.23
2017-10-13T07:52:47.469Z,5.00
2017-10-13T07:55:14.966Z,6.87
2017-10-13T07:57:42.422Z,5.07
2017-10-13T08:00:09.873Z,10.90
2017-10-13T08:02:37.334Z,5.30
2017-10-13T08:05:04.870Z,5.03
2017-10-13T08:07:32.337Z,5.43
2017-10-13T08:09:59.782Z,5.60
2017-10-13T08:12:27.233Z,8.20
2017-10-13T08:14:54.694Z,10.23
2017-10-13T08:17:22.153Z,5.60
2017-10-13T08:19:49.714Z,8.97
2017-10-13T08:22:17.170Z,3.43
2017-10-13T08:24:44.634Z,4.70
2017-10-13T08:27:12.091Z,3.97
2017-10-13T08:29:39.550Z,3.43
2017-10-13T08:32:07.008Z,6.97
2017-10-13T08:34:35.234Z,4.17
2017-10-13T08:37:02.736Z,4.80
2017-10-13T08:39:30.959Z,4.37
2017-10-13T08:41:58.412Z,5.90
2017-10-13T08:44:25.865Z,4.83
2017-10-13T08:46:53.309Z,8.20
2017-10-13T08:49:21.529Z,6.03
2017-10-13T08:51:49.007Z,6.13
2017-10-13T08:54:16.464Z,5.70
2017-10-13T08:56:43.918Z,9.13
2017-10-13T08:59:11.378Z,4.77
2017-10-13T09:01:38.935Z,3.70
2017-10-13T09:04:06.395Z,4.67
2017-10-13T09:06:33.837Z,4.73
2017-10-13T09:09:01.310Z,4.00
2017-10-13T09:11:28.770Z,6.60
2017-10-13T09:13:56.260Z,5.13
2017-10-13T09:16:24.477Z,4.07
2017-10-13T09:18:51.946Z,6.47
2017-10-13T09:21:19.388Z,3.90
2017-10-13T09:23:46.845Z,6.13
2017-10-13T09:26:14.301Z,4.07
2017-10-13T09:28:41.785Z,7.70
2017-10-13T09:31:09.329Z,4.10
2017-10-13T09:33:36.786Z,3.80
2017-10-13T09:36:04.242Z,8.00
2017-10-13T09:38:31.701Z,5.30
2017-10-13T09:40:59.154Z,4.33
2017-10-13T09:43:26.641Z,3.50
2017-10-13T09:45:54.091Z,5.20
2017-10-13T09:48:21.554Z,5.93
2017-10-13T09:50:49.097Z,3.80
2017-10-13T09:53:16.550Z,2.40
2017-10-13T09:55:44.108Z,2.77
2017-10-13T09:58:11.558Z,2.77
2017-10-13T10:00:39.032Z,2.83
2017-10-13T10:03:06.482Z,3.30
2017-10-13T10:05:33.943Z,3.07
2017-10-13T10:08:01.398Z,3.77
2017-10-13T10:10:30.365Z,2.80
2017-10-13T10:12:57.822Z,2.80
2017-10-13T10:15:25.293Z,4.53
2017-10-13T10:17:52.745Z,2.90
2017-10-13T10:20:20.202Z,2.73
2017-10-13T10:22:47.653Z,1.90
2017-10-13T10:25:15.111Z,6.40
2017-10-13T10:27:42.565Z,2.00
2017-10-13T10:30:10.018Z,2.40
2017-10-13T10:32:37.502Z,4.40
2017-10-13T10:35:05.059Z,3.97
2017-10-13T10:37:32.506Z,1.70
2017-10-13T10:39:59.986Z,3.23
2017-10-13T10:42:28.241Z,1.83
2017-10-13T10:44:55.698Z,1.87
2017-10-13T10:47:23.159Z,3.80
2017-10-13T10:49:50.614Z,1.60
2017-10-13T10:52:18.074Z,2.80
2017-10-13T10:54:45.538Z,5.10
2017-10-13T10:57:12.985Z,2.27
2017-10-13T10:59:40.442Z,1.90
2017-10-13T11:02:07.902Z,3.17
2017-10-13T11:04:35.454Z,3.50
2017-10-13T11:07:02.917Z,2.23
2017-10-13T11:09:31.901Z,1.67
2017-10-13T11:11:59.457Z,1.93
2017-10-13T11:14:26.906Z,3.00
2017-10-13T11:16:54.486Z,2.27
2017-10-13T11:19:22.039Z,2.23
2017-10-13T11:21:49.497Z,1.97
2017-10-13T11:24:16.954Z,3.37
2017-10-13T11:26:44.419Z,3.97
2017-10-13T11:29:11.871Z,4.83
2017-10-13T11:31:39.334Z,1.37
2017-10-13T11:34:06.877Z,2.20
2017-10-13T11:36:34.349Z,1.30
2017-10-13T11:39:02.570Z,2.20
2017-10-13T11:41:30.079Z,2.43
2017-10-13T11:43:57.540Z,1.77
2017-10-13T11:46:25.001Z,3.00
2017-10-13T11:48:52.449Z,2.20
2017-10-13T11:51:19.998Z,2.50
2017-10-13T11:53:47.458Z,2.60
2017-10-13T11:56:14.916Z,1.63
2017-10-13T11:58:42.373Z,3.13
2017-10-13T12:01:09.829Z,1.93
2017-10-13T12:03:37.285Z,3.77
2017-10-13T12:06:04.745Z,2.27
2017-10-13T12:08:32.264Z,1.47
2017-10-13T12:10:59.750Z,1.60
2017-10-13T12:13:27.198Z,2.60
2017-10-13T12:15:54.678Z,1.30
2017-10-13T12:18:22.147Z,1.60
2017-10-13T12:20:50.373Z,3.00
2017-10-13T12:23:17.829Z,2.20
2017-10-13T12:25:45.277Z,1.80
2017-10-13T12:28:12.742Z,1.10
2017-10-13T12:30:40.193Z,3.67
2017-10-13T12:33:07.646Z,2.00
2017-10-13T12:35:35.094Z,2.27
2017-10-13T12:38:02.553Z,1.40
2017-10-13T12:40:30.007Z,1.97
2017-10-13T12:42:57.510Z,2.27
2017-10-13T12:45:25.075Z,2.17
2017-10-13T12:47:52.543Z,2.20
2017-10-13T12:50:20.099Z,4.13
2017-10-13T12:52:47.562Z,1.90
2017-10-13T12:55:15.786Z,2.03
2017-10-13T12:57:43.254Z,1.23
2017-10-13T13:00:10.698Z,1.70
2017-10-13T13:02:38.160Z,1.73
2017-10-13T13:05:05.641Z,5.53
2017-10-13T13:07:33.111Z,0.80
2017-10-13T13:10:00.562Z,2.87
2017-10-13T13:12:28.027Z,1.20
2017-10-13T13:14:55.490Z,1.00
2017-10-13T13:17:24.582Z,0.80
2017-10-13T13:19:52.026Z,1.00
2017-10-13T13:22:19.485Z,1.30
2017-10-13T13:24:46.941Z,1.13
2017-10-13T13:27:14.398Z,1.00
2017-10-13T13:29:41.871Z,2.20
2017-10-13T13:32:10.822Z,1.30
2017-10-13T13:34:38.277Z,2.10
2017-10-13T13:37:05.730Z,1.37
2017-10-13T13:39:33.177Z,1.10
2017-10-13T13:42:00.738Z,1.67
2017-10-13T13:44:29.381Z,1.40
2017-10-13T13:46:56.916Z,0.80
2017-10-13T13:49:24.379Z,1.17
2017-10-13T13:51:51.926Z,4.27
2017-10-13T13:54:19.386Z,1.83
2017-10-13T13:56:46.936Z,1.20
2017-10-13T13:59:14.394Z,3.73
2017-10-13T14:01:41.854Z,3.17
2017-10-13T14:04:09.416Z,1.20
2017-10-13T14:06:36.869Z,2.03
2017-10-13T14:09:04.326Z,1.43
2017-10-13T14:11:31.777Z,1.10
2017-10-13T14:13:59.246Z,0.90
2017-10-13T14:16:26.703Z,1.10
2017-10-13T14:18:54.250Z,2.60
2017-10-13T14:21:21.709Z,1.10
2017-10-13T14:23:49.269Z,0.90
2017-10-13T14:26:16.727Z,1.43
2017-10-13T14:28:44.186Z,1.20
2017-10-13T14:31:11.743Z,1.57
2017-10-13T14:33:39.201Z,1.43
2017-10-13T14:36:06.661Z,3.53
2017-10-13T14:38:34.126Z,2.10
2017-10-13T14:41:01.579Z,1.00
2017-10-13T14:43:29.143Z,1.20
2017-10-13T14:45:56.594Z,1.73
2017-10-13T14:48:24.046Z,5.10
2017-10-13T14:50:51.662Z,2.23
2017-10-13T14:53:19.115Z,1.10
2017-10-13T14:55:46.581Z,3.90
2017-10-13T14:58:14.038Z,0.80
2017-10-13T15:00:41.502Z,1.00
2017-10-13T15:03:08.956Z,3.17
2017-10-13T15:05:36.413Z,3.53
2017-10-13T15:08:03.866Z,3.60
2017-10-13T15:10:31.349Z,2.37
2017-10-13T15:12:58.806Z,2.20
2017-10-13T15:15:26.270Z,1.53
2017-10-13T15:17:53.730Z,1.17
2017-10-13T15:20:21.281Z,1.17
2017-10-13T15:22:48.734Z,1.87
2017-10-13T15:25:21.772Z,1.53
2017-10-13T15:27:55.014Z,4.40
2017-10-13T15:30:28.192Z,2.60
2017-10-13T15:33:01.365Z,2.23
2017-10-13T15:35:34.718Z,1.53
2017-10-13T15:38:07.824Z,1.60
2017-10-13T15:40:40.905Z,2.10
2017-10-13T15:43:15.046Z,3.13
2017-10-13T15:45:48.230Z,1.30
2017-10-13T15:48:21.364Z,1.40
2017-10-13T15:50:54.573Z,1.73
2017-10-13T15:53:22.791Z,2.00
2017-10-13T15:55:50.266Z,2.13
2017-10-13T15:58:17.741Z,1.00
2017-10-13T16:00:45.301Z,2.20
2017-10-13T16:03:12.862Z,1.20
2017-10-13T16:05:40.322Z,1.13
2017-10-13T16:08:07.789Z,2.10
2017-10-13T16:10:35.235Z,1.20
2017-10-13T16:13:02.695Z,1.73
2017-10-13T16:15:30.151Z,1.07
2017-10-13T16:17:57.608Z,1.63
2017-10-13T16:20:25.163Z,1.90
2017-10-13T16:22:52.627Z,2.80
2017-10-13T16:25:20.088Z,2.43
2017-10-13T16:27:47.633Z,2.10
2017-10-13T16:30:15.089Z,2.70
2017-10-13T16:32:42.658Z,3.33
2017-10-13T16:35:10.107Z,1.80
2017-10-13T16:37:37.652Z,3.10
2017-10-13T16:40:05.115Z,3.83
2017-10-13T16:42:33.200Z,4.00
2017-10-13T16:45:00.654Z,3.63
2017-10-13T16:47:28.120Z,1.90
2017-10-13T16:49:55.561Z,2.90
2017-10-13T16:52:23.022Z,2.50
2017-10-13T16:54:50.471Z,2.80
2017-10-13T16:57:18.034Z,3.17
2017-10-13T16:59:45.591Z,2.27
2017-10-13T17:02:13.152Z,2.20
2017-10-13T17:04:40.596Z,2.67
2017-10-13T17:07:08.045Z,2.57
2017-10-13T17:09:35.505Z,3.00
2017-10-13T17:12:02.953Z,6.77
2017-10-13T17:14:30.401Z,2.07
2017-10-13T17:16:57.860Z,3.07
2017-10-13T17:19:25.317Z,3.33
2017-10-13T17:21:52.783Z,2.67
2017-10-13T17:24:20.242Z,2.87
2017-10-13T17:26:47.685Z,3.20
2017-10-13T17:29:15.169Z,2.57
2017-10-13T17:31:42.614Z,2.33
2017-10-13T17:34:10.071Z,2.93
2017-10-13T17:36:37.538Z,2.57
2017-10-13T17:39:04.993Z,2.40
2017-10-13T17:41:32.554Z,2.47
2017-10-13T17:44:00.110Z,2.37
2017-10-13T17:46:27.674Z,5.10
2017-10-13T17:48:55.226Z,3.30
2017-10-13T17:51:22.785Z,2.80
2017-10-13T17:53:50.243Z,4.00
2017-10-13T17:56:17.700Z,5.00
2017-10-13T17:58:45.159Z,4.17
2017-10-13T18:01:12.723Z,10.20
2017-10-13T18:03:40.186Z,11.17
2017-10-13T18:06:07.646Z,6.10
2017-10-13T18:08:35.089Z,9.90
2017-10-13T18:11:02.545Z,9.73
2017-10-13T18:13:30.007Z,7.30
2017-10-13T18:15:57.471Z,4.50
2017-10-13T18:18:25.030Z,4.10
2017-10-13T18:20:52.573Z,4.27
2017-10-13T18:23:20.030Z,5.10
2017-10-13T18:25:47.506Z,7.00
2017-10-13T18:28:14.959Z,4.30
2017-10-13T18:30:42.417Z,3.57
2017-10-13T18:33:09.874Z,4.83
2017-10-13T18:35:37.329Z,5.53
2017-10-13T18:38:04.799Z,4.77
2017-10-13T18:40:32.258Z,5.73
2017-10-13T18:43:00.477Z,10.00
2017-10-13T18:45:27.946Z,4.93
2017-10-13T18:47:56.438Z,7.47
2017-10-13T18:50:23.910Z,5.90
2017-10-13T18:52:51.457Z,5.33
2017-10-13T18:55:18.913Z,7.93
2017-10-13T18:57:46.363Z,7.00
2017-10-13T19:00:13.815Z,5.40
2017-10-13T19:02:41.275Z,4.83
2017-10-13T19:05:08.745Z,5.10
2017-10-13T19:07:36.216Z,6.83
2017-10-13T19:10:03.753Z,4.63
2017-10-13T19:12:31.323Z,4.30
2017-10-13T19:14:58.787Z,4.53
2017-10-13T19:17:26.258Z,4.30
2017-10-13T19:19:54.472Z,4.27
2017-10-13T19:22:21.929Z,4.40
2017-10-13T19:24:49.373Z,3.70
2017-10-13T19:27:16.838Z,4.77
2017-10-13T19:29:44.284Z,4.63
2017-10-13T19:32:11.742Z,3.37
2017-10-13T19:34:39.250Z,4.20
2017-10-13T19:37:06.705Z,5.40
2017-10-13T19:39:34.165Z,3.23
2017-10-13T19:42:01.621Z,4.70
2017-10-13T19:44:29.077Z,3.80
2017-10-13T19:46:56.601Z,3.97
2017-10-13T19:49:24.085Z,5.50
2017-10-13T19:51:51.594Z,7.13
2017-10-13T19:54:19.818Z,8.50
2017-10-13T19:56:47.377Z,5.90
2017-10-13T19:59:14.937Z,4.70
2017-10-13T20:01:42.490Z,6.70
2017-10-13T20:04:09.952Z,6.50
2017-10-13T20:06:37.401Z,4.77
2017-10-13T20:09:04.966Z,6.00
2017-10-13T20:11:32.422Z,9.03
2017-10-13T20:13:59.890Z,5.33
2017-10-13T20:16:27.345Z,7.03
2017-10-13T20:18:54.816Z,7.23
2017-10-13T20:21:22.400Z,13.77
2017-10-13T20:23:50.617Z,7.10
2017-10-13T20:26:18.076Z,8.60
2017-10-13T20:28:45.655Z,7.17
2017-10-13T20:31:13.110Z,10.90
2017-10-13T20:33:40.686Z,9.57
2017-10-13T20:36:08.218Z,9.60
2017-10-13T20:38:35.773Z,7.30
2017-10-13T20:41:03.337Z,8.47
2017-10-13T20:43:30.840Z,11.20
2017-10-13T20:45:59.041Z,9.70
2017-10-13T20:48:26.521Z,7.73
2017-10-13T20:50:53.974Z,7.77
2017-10-13T20:53:21.421Z,9.00
2017-10-13T20:55:48.879Z,8.20
2017-10-13T20:58:16.326Z,8.43
2017-10-13T21:00:43.798Z,7.20
2017-10-13T21:03:11.256Z,11.03
2017-10-13T21:05:38.714Z,9.00
2017-10-13T21:08:06.174Z,14.23
2017-10-13T21:10:33.629Z,15.53
2017-10-13T21:13:01.083Z,7.20
2017-10-13T21:15:28.554Z,9.47
2017-10-13T21:17:56.002Z,10.57
2017-10-13T21:20:23.467Z,12.30
2017-10-13T21:22:50.922Z,8.40
2017-10-13T21:25:18.374Z,12.53
2017-10-13T21:27:45.938Z,8.73
2017-10-13T21:30:13.396Z,9.57
2017-10-13T21:32:40.844Z,8.80
2017-10-13T21:35:08.312Z,9.80
2017-10-13T21:37:35.765Z,20.13
2017-10-13T21:40:03.235Z,12.07
2017-10-13T21:42:30.677Z,9.73
2017-10-13T21:44:58.133Z,9.30
2017-10-13T21:47:25.582Z,17.37
2017-10-13T21:49:53.148Z,9.27
2017-10-13T21:52:20.597Z,9.47
2017-10-13T21:54:48.071Z,12.00
2017-10-13T21:57:15.629Z,10.73
2017-10-13T22:02:34.778Z,14.20
2017-10-13T22:05:07.250Z,11.53
2017-10-13T22:07:34.709Z,10.13
2017-10-13T22:10:02.168Z,14.00
2017-10-13T22:12:29.617Z,13.80
2017-10-13T22:14:57.096Z,11.90
2017-10-13T22:17:24.553Z,11.07
2017-10-13T22:19:52.014Z,10.50
2017-10-13T22:22:19.471Z,11.70
2017-10-13T22:24:46.930Z,11.07
2017-10-13T22:27:14.386Z,9.43
2017-10-13T22:29:41.845Z,11.63
2017-10-13T22:32:09.403Z,9.30
2017-10-13T22:34:36.850Z,11.10
2017-10-13T22:37:04.318Z,14.80
2017-10-13T22:39:31.774Z,8.60
2017-10-13T22:41:59.230Z,11.13
2017-10-13T22:44:26.682Z,8.73
2017-10-13T22:46:54.151Z,19.30
2017-10-13T22:49:23.106Z,9.70
2017-10-13T22:51:50.532Z,9.80
2017-10-13T22:54:18.022Z,9.93
2017-10-13T22:56:45.481Z,13.10
2017-10-13T22:59:12.978Z,16.10
2017-10-13T23:01:40.439Z,12.63
2017-10-13T23:04:07.980Z,12.40
2017-10-13T23:06:35.441Z,13.57
2017-10-13T23:09:02.906Z,13.20
2017-10-13T23:11:30.367Z,13.90
2017-10-13T23:13:58.581Z,16.17
2017-10-13T23:16:26.043Z,15.30
2017-10-13T23:18:53.510Z,14.60
2017-10-13T23:21:20.967Z,13.47
2017-10-13T23:23:48.421Z,19.03
2017-10-13T23:26:15.873Z,12.90
2017-10-13T23:28:43.334Z,11.00
2017-10-13T23:31:10.830Z,11.67
2017-10-13T23:33:38.379Z,11.57
2017-10-13T23:36:05.833Z,12.70
2017-10-13T23:38:33.288Z,11.80
2017-10-13T23:41:00.845Z,14.93
2017-10-13T23:43:28.406Z,12.47
2017-10-13T23:45:55.965Z,9.63
2017-10-13T23:48:23.521Z,7.03
2017-10-13T23:50:50.970Z,7.33
2017-10-13T23:53:18.446Z,9.73
2017-10-13T23:55:45.906Z,10.97
2017-10-13T23:58:13.367Z,17.13
